Time;durP1;ratioP1;P1;durP2;ratioP2;P2;SDS_P1;SDS_P2;PMS_P1;PMS_P2;Temp;Humidity;BMP_temperature;BMP_pressure;BME280_temperature;BME280_humidity;BME280_pressure;Samples;Min_cycle;Max_cycle;Signal;HPM_P1;HPM_P2
2023/07/07 00:00:41;;;;;;;0.20;0.20;;;;;;;;;;5073907;28;20598;-79
2023/07/07 00:03:07;;;;;;;0.32;0.32;;;;;;;;;;5055790;28;20043;-78
2023/07/07 00:05:33;;;;;;;0.20;0.20;;;;;;;;;;5073865;28;20039;-78
2023/07/07 00:07:59;;;;;;;0.88;0.73;;;;;;;;;;5055711;28;20051;-78
2023/07/07 00:10:24;;;;;;;0.20;0.20;;;;;;;;;;5073892;28;20017;-78
2023/07/07 00:12:51;;;;;;;0.20;0.20;;;;;;;;;;5074402;28;20044;-78
2023/07/07 00:15:16;;;;;;;0.20;0.20;;;;;;;;;;5073702;28;20023;-78
2023/07/07 00:17:42;;;;;;;0.20;0.20;;;;;;;;;;5088447;28;20043;-80
2023/07/07 00:20:12;;;;;;;4.57;1.35;;;;;;;;;;5094190;28;20105;-80
2023/07/07 00:22:37;;;;;;;0.20;0.20;;;;;;;;;;5093891;28;20044;-80
2023/07/07 00:25:03;;;;;;;0.20;0.20;;;;;;;;;;5094103;28;20378;-77
2023/07/07 00:27:29;;;;;;;0.30;0.30;;;;;;;;;;5096768;28;20476;-86
2023/07/07 00:29:54;;;;;;;0.20;0.20;;;;;;;;;;5103556;28;20089;-86
2023/07/07 00:32:20;;;;;;;0.40;0.40;;;;;;;;;;5094366;28;20066;-83
2023/07/07 00:34:45;;;;;;;0.30;0.30;;;;;;;;;;5094361;28;20028;-84
2023/07/07 00:37:10;;;;;;;0.20;0.20;;;;;;;;;;5075949;28;20035;-81
2023/07/07 00:39:36;;;;;;;0.20;0.20;;;;;;;;;;5094418;28;20535;-83
2023/07/07 00:42:01;;;;;;;0.20;0.20;;;;;;;;;;5094160;28;20082;-85
2023/07/07 00:44:30;;;;;;;0.30;0.30;;;;;;;;;;5093292;28;20027;-76
2023/07/07 00:46:55;;;;;;;0.20;0.20;;;;;;;;;;5093731;28;20036;-82
2023/07/07 00:49:21;;;;;;;0.20;0.20;;;;;;;;;;5075364;28;20028;-84
2023/07/07 00:51:50;;;;;;;0.43;0.43;;;;;;;;;;5075819;28;20031;-83
2023/07/07 00:54:24;;;;;;;0.20;0.20;;;;;;;;;;5093788;28;20126;-82
2023/07/07 00:56:51;;;;;;;0.20;0.20;;;;;;;;;;5075792;28;20082;-84
2023/07/07 00:59:19;;;;;;;0.10;0.10;;;;;;;;;;5075862;28;20064;-85
2023/07/07 01:01:46;;;;;;;0.20;0.20;;;;;;;;;;5093728;28;20040;-84
2023/07/07 01:04:14;;;;;;;0.20;0.20;;;;;;;;;;5093774;28;20067;-86
2023/07/07 01:06:43;;;;;;;1.20;0.93;;;;;;;;;;5093631;28;20032;-85
2023/07/07 01:09:11;;;;;;;0.30;0.30;;;;;;;;;;5094185;28;20081;-84
2023/07/07 01:11:37;;;;;;;0.20;0.20;;;;;;;;;;5086045;28;20036;-82
2023/07/07 01:14:06;;;;;;;0.20;0.20;;;;;;;;;;5096064;28;20057;-81
2023/07/07 01:16:50;;;;;;;0.20;0.20;;;;;;;;;;5090155;28;20028;-81
2023/07/07 01:19:33;;;;;;;0.30;0.30;;;;;;;;;;5064507;28;20115;-83
2023/07/07 01:22:05;;;;;;;0.20;0.20;;;;;;;;;;5055607;28;20170;-83
2023/07/07 01:24:45;;;;;;;0.30;0.30;;;;;;;;;;5055620;28;20624;-83
2023/07/07 01:27:20;;;;;;;0.20;0.20;;;;;;;;;;5073978;28;20025;-84
2023/07/07 01:29:51;;;;;;;1.75;1.65;;;;;;;;;;5054922;28;20197;-80
2023/07/07 01:32:19;;;;;;;0.20;0.20;;;;;;;;;;5072804;28;20037;-80
2023/07/07 01:34:46;;;;;;;0.20;0.20;;;;;;;;;;5072837;28;20047;-82
2023/07/07 01:37:11;;;;;;;8.05;2.38;;;;;;;;;;5072669;28;20384;-82
2023/07/07 01:39:37;;;;;;;0.20;0.20;;;;;;;;;;5065442;28;20036;-87
2023/07/07 01:42:18;;;;;;;0.20;0.20;;;;;;;;;;5089904;28;20113;-86
2023/07/07 01:44:53;;;;;;;0.20;0.20;;;;;;;;;;5092865;28;20036;-85
2023/07/07 01:47:20;;;;;;;0.32;0.32;;;;;;;;;;5092498;28;20475;-85
2023/07/07 01:49:53;;;;;;;1.05;0.63;;;;;;;;;;5076431;28;20048;-85
2023/07/07 01:52:30;;;;;;;0.35;0.35;;;;;;;;;;5072604;28;20387;-85
2023/07/07 01:55:17;;;;;;;0.20;0.20;;;;;;;;;;5073055;28;20146;-86
2023/07/07 01:57:44;;;;;;;0.35;0.35;;;;;;;;;;5054452;28;20482;-76
2023/07/07 02:00:10;;;;;;;0.20;0.20;;;;;;;;;;5066652;28;20429;-83
2023/07/07 02:02:42;;;;;;;0.47;0.47;;;;;;;;;;5088724;28;20131;-82
2023/07/07 02:05:09;;;;;;;0.30;0.30;;;;;;;;;;5072083;28;20115;-82
2023/07/07 02:07:34;;;;;;;0.20;0.20;;;;;;;;;;5054446;28;20028;-81
2023/07/07 02:10:00;;;;;;;0.20;0.20;;;;;;;;;;5054860;28;20158;-82
2023/07/07 02:12:25;;;;;;;0.20;0.20;;;;;;;;;;5075466;28;20041;-81
2023/07/07 02:14:51;;;;;;;0.20;0.20;;;;;;;;;;5074953;28;20058;-81
2023/07/07 02:17:16;;;;;;;0.20;0.20;;;;;;;;;;5055151;28;20040;-81
2023/07/07 02:19:42;;;;;;;0.20;0.20;;;;;;;;;;5072372;28;20064;-81
2023/07/07 02:22:08;;;;;;;0.20;0.20;;;;;;;;;;5072202;28;20443;-81
2023/07/07 02:24:33;;;;;;;0.20;0.20;;;;;;;;;;5072355;28;20091;-84
2023/07/07 02:27:01;;;;;;;0.17;0.17;;;;;;;;;;5055537;28;20082;-83
2023/07/07 02:29:27;;;;;;;0.17;0.17;;;;;;;;;;5075888;28;20032;-82
2023/07/07 02:31:52;;;;;;;0.20;0.20;;;;;;;;;;5075599;28;20183;-81
2023/07/07 02:34:18;;;;;;;0.20;0.20;;;;;;;;;;5075304;28;20024;-82
2023/07/07 02:36:43;;;;;;;0.20;0.20;;;;;;;;;;5075403;28;20071;-81
2023/07/07 02:39:09;;;;;;;0.20;0.20;;;;;;;;;;5075715;28;20487;-77
2023/07/07 02:41:34;;;;;;;0.10;0.10;;;;;;;;;;5083048;28;20036;-79
2023/07/07 02:43:59;;;;;;;0.20;0.20;;;;;;;;;;5095477;28;20499;-80
2023/07/07 02:46:25;;;;;;;0.20;0.20;;;;;;;;;;5095266;28;20032;-80
2023/07/07 02:48:50;;;;;;;0.20;0.20;;;;;;;;;;5095443;28;20035;-79
2023/07/07 02:51:16;;;;;;;0.20;0.20;;;;;;;;;;5095159;28;20099;-78
2023/07/07 02:53:41;;;;;;;0.20;0.20;;;;;;;;;;5095472;28;20032;-79
2023/07/07 02:56:07;;;;;;;0.20;0.20;;;;;;;;;;5077329;28;20032;-79
2023/07/07 02:58:32;;;;;;;0.10;0.10;;;;;;;;;;5095386;28;20082;-78
2023/07/07 03:01:09;;;;;;;0.20;0.20;;;;;;;;;;5095659;28;20016;-84
2023/07/07 03:03:34;;;;;;;0.20;0.20;;;;;;;;;;5087104;28;20040;-84
2023/07/07 03:06:04;;;;;;;0.20;0.20;;;;;;;;;;5073401;28;20093;-80
2023/07/07 03:08:31;;;;;;;0.30;0.30;;;;;;;;;;5073528;28;20062;-80
2023/07/07 03:10:57;;;;;;;0.20;0.20;;;;;;;;;;5090915;28;20068;-86
2023/07/07 03:13:22;;;;;;;0.20;0.20;;;;;;;;;;5091551;28;20174;-85
2023/07/07 03:15:48;;;;;;;0.20;0.20;;;;;;;;;;5073076;28;20044;-86
2023/07/07 03:18:22;;;;;;;0.30;0.30;;;;;;;;;;5072612;28;20024;-86
2023/07/07 03:20:53;;;;;;;0.20;0.20;;;;;;;;;;5072638;28;20059;-86
2023/07/07 03:23:23;;;;;;;0.20;0.20;;;;;;;;;;5072018;28;20498;-84
2023/07/07 03:25:49;;;;;;;0.20;0.20;;;;;;;;;;5090434;28;20044;-85
2023/07/07 03:28:15;;;;;;;0.22;0.22;;;;;;;;;;5071346;28;20882;-81
2023/07/07 03:30:42;;;;;;;0.20;0.20;;;;;;;;;;5072248;28;20059;-82
2023/07/07 03:33:13;;;;;;;0.30;0.30;;;;;;;;;;5056227;28;20024;-86
2023/07/07 03:35:40;;;;;;;0.20;0.20;;;;;;;;;;5071560;28;20040;-85
2023/07/07 03:38:06;;;;;;;0.20;0.20;;;;;;;;;;5072009;28;20047;-80
2023/07/07 03:40:32;;;;;;;0.20;0.20;;;;;;;;;;5072100;28;20514;-80
2023/07/07 03:42:57;;;;;;;0.20;0.20;;;;;;;;;;5081356;28;20040;-80
2023/07/07 03:45:24;;;;;;;0.20;0.20;;;;;;;;;;5072225;28;20028;-79
2023/07/07 03:47:52;;;;;;;0.20;0.20;;;;;;;;;;5072074;28;20043;-78
2023/07/07 03:50:21;;;;;;;0.20;0.20;;;;;;;;;;5071801;28;20032;-77
2023/07/07 03:52:46;;;;;;;0.20;0.20;;;;;;;;;;5093381;28;20110;-78
2023/07/07 03:55:12;;;;;;;0.20;0.20;;;;;;;;;;5072027;28;20035;-77
2023/07/07 03:57:37;;;;;;;0.20;0.20;;;;;;;;;;5089471;28;20833;-78
2023/07/07 04:00:03;;;;;;;0.20;0.20;;;;;;;;;;5089123;28;20038;-80
2023/07/07 04:02:39;;;;;;;0.20;0.20;;;;;;;;;;5089558;28;20530;-80
2023/07/07 04:05:04;;;;;;;0.20;0.20;;;;;;;;;;5068431;28;20127;-80
2023/07/07 04:07:30;;;;;;;0.25;0.25;;;;;;;;;;5072553;28;20036;-79
2023/07/07 04:09:55;;;;;;;0.98;0.98;;;;;;;;;;5089562;28;20032;-79
2023/07/07 04:12:20;;;;;;;0.20;0.20;;;;;;;;;;5090218;28;20024;-79
2023/07/07 04:14:46;;;;;;;0.20;0.20;;;;;;;;;;5090936;28;20028;-79
2023/07/07 04:17:11;;;;;;;0.52;0.52;;;;;;;;;;5089616;28;20039;-80
2023/07/07 04:19:37;;;;;;;0.20;0.20;;;;;;;;;;5089718;28;20071;-82
2023/07/07 04:22:02;;;;;;;0.22;0.22;;;;;;;;;;5090679;28;20545;-80
2023/07/07 04:24:28;;;;;;;0.10;0.10;;;;;;;;;;5089736;28;20024;-69
2023/07/07 04:26:53;;;;;;;0.20;0.20;;;;;;;;;;5089862;28;20047;-70
2023/07/07 04:29:19;;;;;;;0.20;0.20;;;;;;;;;;5089718;28;20085;-70
2023/07/07 04:31:45;;;;;;;0.10;0.10;;;;;;;;;;5090736;28;20036;-69
2023/07/07 04:34:12;;;;;;;0.20;0.20;;;;;;;;;;5070815;28;20047;-70
2023/07/07 04:36:37;;;;;;;0.20;0.20;;;;;;;;;;5086069;28;20093;-70
2023/07/07 04:39:03;;;;;;;0.20;0.20;;;;;;;;;;5088704;28;20479;-70
2023/07/07 04:41:29;;;;;;;0.20;0.20;;;;;;;;;;5088739;28;20146;-70
2023/07/07 04:43:59;;;;;;;0.20;0.20;;;;;;;;;;5089641;28;20506;-70
2023/07/07 04:46:29;;;;;;;0.20;0.20;;;;;;;;;;5088242;28;20031;-71
2023/07/07 04:48:54;;;;;;;0.20;0.20;;;;;;;;;;5067488;28;20541;-69
2023/07/07 04:51:20;;;;;;;0.20;0.20;;;;;;;;;;5066782;28;20055;-69
2023/07/07 04:53:46;;;;;;;2.90;2.80;;;;;;;;;;5050360;28;20086;-70
2023/07/07 04:56:16;;;;;;;0.20;0.20;;;;;;;;;;5069237;28;20353;-70
2023/07/07 04:58:42;;;;;;;0.20;0.20;;;;;;;;;;5080704;28;20073;-70
2023/07/07 05:01:11;;;;;;;0.30;0.30;;;;;;;;;;5088556;28;20036;-70
2023/07/07 05:03:37;;;;;;;0.20;0.20;;;;;;;;;;5087393;28;20412;-69
2023/07/07 05:06:03;;;;;;;0.22;0.22;;;;;;;;;;5088091;28;20058;-70
2023/07/07 05:08:31;;;;;;;0.30;0.30;;;;;;;;;;5058601;28;20082;-70
2023/07/07 05:10:56;;;;;;;0.22;0.22;;;;;;;;;;5084942;28;20414;-70
2023/07/07 05:13:22;;;;;;;0.28;0.28;;;;;;;;;;5088423;28;20039;-70
2023/07/07 05:15:47;;;;;;;0.20;0.20;;;;;;;;;;5089370;28;20176;-70
2023/07/07 05:18:12;;;;;;;0.20;0.20;;;;;;;;;;5089013;28;20030;-71
2023/07/07 05:20:38;;;;;;;0.20;0.20;;;;;;;;;;5084545;28;20052;-70
2023/07/07 05:23:03;;;;;;;0.20;0.20;;;;;;;;;;5079661;28;20050;-70
2023/07/07 05:25:29;;;;;;;0.32;0.32;;;;;;;;;;5088780;28;20525;-70
2023/07/07 05:27:54;;;;;;;0.30;0.30;;;;;;;;;;5088815;28;20038;-70
2023/07/07 05:30:20;;;;;;;0.20;0.20;;;;;;;;;;5088196;28;20103;-70
2023/07/07 05:32:45;;;;;;;0.20;0.20;;;;;;;;;;5087692;28;20415;-69
2023/07/07 05:35:10;;;;;;;2.45;2.25;;;;;;;;;;5087799;28;20020;-70
2023/07/07 05:37:36;;;;;;;2.28;0.93;;;;;;;;;;5087726;28;20546;-69
2023/07/07 05:40:01;;;;;;;0.20;0.20;;;;;;;;;;5087665;28;20026;-70
2023/07/07 05:42:27;;;;;;;0.40;0.40;;;;;;;;;;5087691;28;20039;-70
2023/07/07 05:44:53;;;;;;;0.80;0.65;;;;;;;;;;5088791;28;20032;-70
2023/07/07 05:47:18;;;;;;;0.30;0.30;;;;;;;;;;5088924;28;20035;-71
2023/07/07 05:49:43;;;;;;;0.20;0.20;;;;;;;;;;5088764;28;20437;-70
2023/07/07 05:52:09;;;;;;;0.32;0.32;;;;;;;;;;5088721;28;20036;-70
2023/07/07 05:54:34;;;;;;;0.35;0.35;;;;;;;;;;5088556;28;20165;-70
2023/07/07 05:57:01;;;;;;;0.20;0.20;;;;;;;;;;5088649;28;20062;-70
2023/07/07 05:59:26;;;;;;;0.20;0.20;;;;;;;;;;5070651;28;20044;-70
2023/07/07 06:01:52;;;;;;;3.70;3.50;;;;;;;;;;5078719;28;20541;-70
2023/07/07 06:04:17;;;;;;;0.20;0.20;;;;;;;;;;5071853;28;20029;-70
2023/07/07 06:06:43;;;;;;;0.28;0.28;;;;;;;;;;5071915;28;20056;-71
2023/07/07 06:09:08;;;;;;;0.30;0.30;;;;;;;;;;5072526;28;20041;-70
2023/07/07 06:11:34;;;;;;;0.20;0.20;;;;;;;;;;5054323;28;20472;-70
2023/07/07 06:13:59;;;;;;;0.20;0.20;;;;;;;;;;5071451;28;20476;-70
2023/07/07 06:16:24;;;;;;;1.08;1.08;;;;;;;;;;5053788;28;20506;-70
2023/07/07 06:18:50;;;;;;;0.20;0.20;;;;;;;;;;5072174;28;20040;-70
2023/07/07 06:21:15;;;;;;;0.55;0.55;;;;;;;;;;5072320;28;20040;-69
2023/07/07 06:23:42;;;;;;;0.30;0.30;;;;;;;;;;5077956;28;20032;-69
2023/07/07 06:26:07;;;;;;;0.20;0.20;;;;;;;;;;5084252;28;20032;-69
2023/07/07 06:28:33;;;;;;;0.30;0.30;;;;;;;;;;5084981;28;20086;-69
2023/07/07 06:30:58;;;;;;;0.45;0.45;;;;;;;;;;5076249;28;20414;-68
2023/07/07 06:33:24;;;;;;;1.02;1.02;;;;;;;;;;5053809;28;20055;-69
2023/07/07 06:35:49;;;;;;;0.30;0.30;;;;;;;;;;5071879;28;20052;-69
2023/07/07 06:38:15;;;;;;;0.20;0.20;;;;;;;;;;5072058;28;20044;-69
2023/07/07 06:40:40;;;;;;;0.30;0.30;;;;;;;;;;5071278;28;20044;-69
2023/07/07 06:43:06;;;;;;;0.60;0.60;;;;;;;;;;5071272;28;20040;-69
2023/07/07 06:45:31;;;;;;;0.30;0.30;;;;;;;;;;5053106;28;20040;-68
2023/07/07 06:47:57;;;;;;;0.20;0.20;;;;;;;;;;5071641;28;20031;-69
2023/07/07 06:50:30;;;;;;;0.55;0.55;;;;;;;;;;5071270;28;20032;-68
2023/07/07 06:52:55;;;;;;;0.30;0.30;;;;;;;;;;5053354;28;20043;-69
2023/07/07 06:55:21;;;;;;;3.30;1.67;;;;;;;;;;5071165;28;20388;-69
2023/07/07 06:57:46;;;;;;;0.40;0.40;;;;;;;;;;5070881;28;20436;-70
2023/07/07 07:00:12;;;;;;;0.50;0.50;;;;;;;;;;5071059;28;20564;-70
2023/07/07 07:02:38;;;;;;;0.30;0.30;;;;;;;;;;5089826;28;20047;-70
2023/07/07 07:05:03;;;;;;;0.30;0.30;;;;;;;;;;5091366;28;20472;-69
2023/07/07 07:07:30;;;;;;;0.43;0.43;;;;;;;;;;5091184;28;20059;-69
2023/07/07 07:09:56;;;;;;;0.38;0.38;;;;;;;;;;5091504;28;20105;-69
2023/07/07 07:12:21;;;;;;;0.47;0.47;;;;;;;;;;5093036;28;20472;-69
2023/07/07 07:14:46;;;;;;;3.90;3.60;;;;;;;;;;5085083;28;20028;-69
2023/07/07 07:17:12;;;;;;;0.40;0.40;;;;;;;;;;5073724;28;20039;-70
2023/07/07 07:19:37;;;;;;;0.40;0.40;;;;;;;;;;5083709;28;20042;-70
2023/07/07 07:22:02;;;;;;;0.45;0.45;;;;;;;;;;5102305;28;20113;-70
2023/07/07 07:24:28;;;;;;;0.50;0.50;;;;;;;;;;5111035;28;20076;-70
2023/07/07 07:26:53;;;;;;;0.43;0.43;;;;;;;;;;5107314;28;20023;-70
2023/07/07 07:29:19;;;;;;;0.30;0.30;;;;;;;;;;5099816;28;20122;-69
2023/07/07 07:31:44;;;;;;;0.40;0.40;;;;;;;;;;5110363;28;20432;-70
2023/07/07 07:34:29;;;;;;;2.58;1.02;;;;;;;;;;5107647;28;20114;-69
2023/07/07 07:36:56;;;;;;;0.30;0.30;;;;;;;;;;5081775;28;20074;-69
2023/07/07 07:39:22;;;;;;;0.38;0.38;;;;;;;;;;5070358;28;20067;-70
2023/07/07 07:41:48;;;;;;;0.30;0.30;;;;;;;;;;5068404;28;20476;-70
2023/07/07 07:44:17;;;;;;;0.40;0.40;;;;;;;;;;5068715;28;20052;-70
2023/07/07 07:46:44;;;;;;;0.40;0.40;;;;;;;;;;5068735;28;20554;-69
2023/07/07 07:49:09;;;;;;;0.40;0.40;;;;;;;;;;5068839;28;20079;-70
2023/07/07 07:51:37;;;;;;;0.40;0.40;;;;;;;;;;5068592;28;20480;-70
2023/07/07 07:54:06;;;;;;;0.40;0.40;;;;;;;;;;5068459;28;20044;-70
2023/07/07 07:56:32;;;;;;;0.40;0.40;;;;;;;;;;5077131;28;20034;-69
2023/07/07 07:58:57;;;;;;;0.43;0.43;;;;;;;;;;5078597;28;20021;-69
2023/07/07 08:01:23;;;;;;;0.40;0.40;;;;;;;;;;5069529;28;20036;-69
2023/07/07 08:03:48;;;;;;;0.30;0.30;;;;;;;;;;5052641;28;20035;-69
2023/07/07 08:06:14;;;;;;;0.30;0.30;;;;;;;;;;5075612;28;20108;-69
2023/07/07 08:08:39;;;;;;;0.30;0.30;;;;;;;;;;5085252;28;20028;-69
2023/07/07 08:11:04;;;;;;;0.40;0.40;;;;;;;;;;5083915;28;20029;-68
2023/07/07 08:13:30;;;;;;;0.43;0.43;;;;;;;;;;5083754;28;20039;-69
2023/07/07 08:15:55;;;;;;;0.40;0.40;;;;;;;;;;5090188;28;20084;-69
2023/07/07 08:18:21;;;;;;;0.40;0.40;;;;;;;;;;5084442;28;20493;-69
2023/07/07 08:20:46;;;;;;;0.45;0.45;;;;;;;;;;5080532;28;20027;-69
2023/07/07 08:23:12;;;;;;;0.50;0.50;;;;;;;;;;5082140;28;20036;-69
2023/07/07 08:25:37;;;;;;;0.93;0.93;;;;;;;;;;5084726;28;20032;-69
2023/07/07 08:28:03;;;;;;;0.50;0.50;;;;;;;;;;5088305;28;20478;-69
2023/07/07 08:30:29;;;;;;;0.85;0.85;;;;;;;;;;5089475;28;20383;-69
2023/07/07 08:32:54;;;;;;;0.38;0.38;;;;;;;;;;5087440;28;20035;-69
2023/07/07 08:35:20;;;;;;;0.40;0.40;;;;;;;;;;5090235;28;20115;-69
2023/07/07 08:37:45;;;;;;;0.40;0.40;;;;;;;;;;5071676;28;20036;-69
2023/07/07 08:40:20;;;;;;;0.35;0.35;;;;;;;;;;5089650;28;20043;-69
2023/07/07 08:42:45;;;;;;;0.40;0.40;;;;;;;;;;5089719;28;20036;-68
2023/07/07 08:45:13;;;;;;;0.60;0.60;;;;;;;;;;5089501;28;20044;-69
2023/07/07 08:47:48;;;;;;;0.32;0.32;;;;;;;;;;5089534;28;20111;-69
2023/07/07 08:50:19;;;;;;;0.40;0.40;;;;;;;;;;5089178;28;20066;-69
2023/07/07 08:53:02;;;;;;;0.40;0.40;;;;;;;;;;5089482;28;20039;-69
2023/07/07 08:55:33;;;;;;;0.47;0.47;;;;;;;;;;5089387;28;20032;-69
2023/07/07 08:58:02;;;;;;;0.30;0.30;;;;;;;;;;5071514;28;20077;-69
2023/07/07 09:00:46;;;;;;;0.50;0.50;;;;;;;;;;5089290;28;20395;-69
2023/07/07 09:03:11;;;;;;;0.50;0.50;;;;;;;;;;5089008;28;20036;-69
2023/07/07 09:05:36;;;;;;;0.40;0.40;;;;;;;;;;5089147;28;20047;-69
2023/07/07 09:08:07;;;;;;;0.43;0.43;;;;;;;;;;5089563;28;20395;-69
2023/07/07 09:10:35;;;;;;;0.40;0.40;;;;;;;;;;5088971;28;20063;-68
2023/07/07 09:13:03;;;;;;;0.47;0.47;;;;;;;;;;5089231;28;20047;-68
2023/07/07 09:15:29;;;;;;;0.43;0.43;;;;;;;;;;5088663;28;20035;-68
2023/07/07 09:17:58;;;;;;;0.40;0.40;;;;;;;;;;5088999;28;20043;-69
2023/07/07 09:20:25;;;;;;;0.40;0.40;;;;;;;;;;5089043;28;20046;-71
2023/07/07 09:22:55;;;;;;;0.35;0.35;;;;;;;;;;5089044;28;20036;-76
2023/07/07 09:25:32;;;;;;;0.50;0.50;;;;;;;;;;5088889;28;20377;-74
2023/07/07 09:28:02;;;;;;;0.65;0.65;;;;;;;;;;5089273;28;20067;-75
2023/07/07 09:30:33;;;;;;;0.50;0.50;;;;;;;;;;5088621;28;20062;-75
2023/07/07 09:32:59;;;;;;;0.40;0.40;;;;;;;;;;5088817;28;20040;-76
2023/07/07 09:35:27;;;;;;;0.60;0.60;;;;;;;;;;5089046;28;20035;-77
2023/07/07 09:38:03;;;;;;;0.70;0.70;;;;;;;;;;5088155;28;20028;-77
2023/07/07 09:40:43;;;;;;;0.82;0.82;;;;;;;;;;5089190;28;20095;-80
2023/07/07 09:43:28;;;;;;;1.45;1.35;;;;;;;;;;5088726;28;20048;-77
2023/07/07 09:46:08;;;;;;;0.38;0.38;;;;;;;;;;5089199;28;20111;-74
2023/07/07 09:48:39;;;;;;;1.08;1.08;;;;;;;;;;5088390;28;20611;-75
2023/07/07 09:51:13;;;;;;;1.25;1.15;;;;;;;;;;5081221;28;20036;-75
2023/07/07 09:53:39;;;;;;;0.60;0.60;;;;;;;;;;5088511;28;20036;-74
2023/07/07 09:56:09;;;;;;;2.15;1.08;;;;;;;;;;5089080;28;20536;-73
2023/07/07 09:58:37;;;;;;;0.50;0.50;;;;;;;;;;5088505;28;20032;-75
2023/07/07 10:01:03;;;;;;;0.50;0.50;;;;;;;;;;5087602;28;20750;-76
2023/07/07 10:03:33;;;;;;;0.43;0.43;;;;;;;;;;5076634;28;20039;-74
2023/07/07 10:06:00;;;;;;;1.15;1.00;;;;;;;;;;5088416;28;20491;-74
2023/07/07 10:08:26;;;;;;;0.50;0.50;;;;;;;;;;5088318;28;20028;-76
2023/07/07 10:10:56;;;;;;;0.50;0.50;;;;;;;;;;5089000;28;20035;-79
2023/07/07 10:13:21;;;;;;;0.40;0.40;;;;;;;;;;5088988;28;20048;-75
2023/07/07 10:16:01;;;;;;;0.50;0.50;;;;;;;;;;5088256;28;20035;-78
2023/07/07 10:18:28;;;;;;;0.60;0.60;;;;;;;;;;5086880;28;20034;-79
2023/07/07 10:20:56;;;;;;;0.60;0.60;;;;;;;;;;5088473;28;20036;-74
2023/07/07 10:23:22;;;;;;;0.60;0.60;;;;;;;;;;5088372;28;20355;-75
2023/07/07 10:25:47;;;;;;;0.60;0.60;;;;;;;;;;5088720;28;20107;-82
2023/07/07 10:28:14;;;;;;;0.60;0.60;;;;;;;;;;5088797;28;20036;-75
2023/07/07 10:30:40;;;;;;;1.25;1.15;;;;;;;;;;5087759;28;20518;-76
2023/07/07 10:33:08;;;;;;;1.23;1.13;;;;;;;;;;5088181;28;20428;-80
2023/07/07 10:35:33;;;;;;;2.43;1.60;;;;;;;;;;5088167;28;20035;-76
2023/07/07 10:38:03;;;;;;;0.70;0.70;;;;;;;;;;5088688;28;20036;-74
2023/07/07 10:40:28;;;;;;;2.15;1.30;;;;;;;;;;5087695;28;20021;-74
2023/07/07 10:42:55;;;;;;;2.58;1.15;;;;;;;;;;5087529;28;20044;-75
2023/07/07 10:45:22;;;;;;;1.33;0.95;;;;;;;;;;5088065;28;20036;-74
2023/07/07 10:47:47;;;;;;;2.55;1.25;;;;;;;;;;5087652;28;20343;-75
2023/07/07 10:50:15;;;;;;;1.08;1.00;;;;;;;;;;5089895;28;20031;-75
2023/07/07 10:52:43;;;;;;;1.95;0.77;;;;;;;;;;5089488;28;20012;-74
2023/07/07 10:55:18;;;;;;;1.52;0.75;;;;;;;;;;5089507;28;20068;-75
2023/07/07 10:58:21;;;;;;;2.38;0.85;;;;;;;;;;5090031;28;20062;-74
2023/07/07 11:00:50;;;;;;;0.93;0.80;;;;;;;;;;4987674;28;20082;-75
2023/07/07 11:03:34;;;;;;;0.47;0.47;;;;;;;;;;4986459;28;20065;-74
2023/07/07 11:06:16;;;;;;;2.70;1.58;;;;;;;;;;5049307;28;20040;-74
2023/07/07 11:09:01;;;;;;;0.43;0.43;;;;;;;;;;5082638;28;20430;-74
2023/07/07 11:11:32;;;;;;;2.08;1.05;;;;;;;;;;5068471;28;20044;-74
2023/07/07 11:14:24;;;;;;;4.30;1.08;;;;;;;;;;5091188;28;20418;-74
2023/07/07 11:16:52;;;;;;;1.08;0.98;;;;;;;;;;5059833;28;20480;-76
2023/07/07 11:19:17;;;;;;;2.88;0.68;;;;;;;;;;5081228;28;20059;-74
2023/07/07 11:21:52;;;;;;;0.70;0.70;;;;;;;;;;5084147;28;20293;-81
2023/07/07 11:24:20;;;;;;;1.95;0.93;;;;;;;;;;5081238;28;20035;-74
2023/07/07 11:27:05;;;;;;;1.37;1.27;;;;;;;;;;5080517;28;20094;-78
2023/07/07 11:29:39;;;;;;;1.98;1.10;;;;;;;;;;5060368;28;20041;-75
2023/07/07 11:32:15;;;;;;;1.02;0.80;;;;;;;;;;5070537;28;20036;-74
2023/07/07 11:34:49;;;;;;;0.70;0.45;;;;;;;;;;5065342;28;20090;-77
2023/07/07 11:37:23;;;;;;;0.40;0.40;;;;;;;;;;5083251;28;20028;-75
2023/07/07 11:39:48;;;;;;;0.40;0.40;;;;;;;;;;5075751;28;20033;-73
2023/07/07 11:42:33;;;;;;;1.02;0.80;;;;;;;;;;5074784;28;20372;-75
2023/07/07 11:45:08;;;;;;;3.40;1.52;;;;;;;;;;5089564;28;20024;-76
2023/07/07 11:47:55;;;;;;;0.30;0.30;;;;;;;;;;5087455;28;20424;-74
2023/07/07 11:50:31;;;;;;;0.50;0.50;;;;;;;;;;5087790;28;20157;-74
2023/07/07 11:53:06;;;;;;;1.38;1.13;;;;;;;;;;5057340;28;20364;-74
2023/07/07 11:55:44;;;;;;;1.27;0.88;;;;;;;;;;5090884;28;20518;-74
2023/07/07 11:58:25;;;;;;;0.70;0.70;;;;;;;;;;5077316;28;20036;-75
2023/07/07 12:00:58;;;;;;;0.65;0.65;;;;;;;;;;5077214;28;20105;-74
2023/07/07 12:03:30;;;;;;;0.80;0.70;;;;;;;;;;5085567;28;20036;-74
2023/07/07 12:05:57;;;;;;;0.40;0.40;;;;;;;;;;5080009;28;20082;-74
2023/07/07 12:08:35;;;;;;;0.40;0.40;;;;;;;;;;5079234;28;20028;-74
2023/07/07 12:11:02;;;;;;;1.13;0.90;;;;;;;;;;5077721;28;20460;-74
2023/07/07 12:13:30;;;;;;;0.47;0.47;;;;;;;;;;5082770;28;20046;-74
2023/07/07 12:16:02;;;;;;;2.63;1.97;;;;;;;;;;5078448;28;20043;-75
2023/07/07 12:18:30;;;;;;;0.50;0.50;;;;;;;;;;5078387;28;20054;-75
2023/07/07 12:21:03;;;;;;;2.33;1.23;;;;;;;;;;5069919;28;20139;-75
2023/07/07 12:23:31;;;;;;;0.45;0.45;;;;;;;;;;5070030;28;20090;-74
2023/07/07 12:26:06;;;;;;;0.60;0.60;;;;;;;;;;5069744;28;20481;-76
2023/07/07 12:28:32;;;;;;;1.75;0.95;;;;;;;;;;5069221;28;20036;-75
2023/07/07 12:30:57;;;;;;;1.60;1.02;;;;;;;;;;5069549;28;20033;-74
2023/07/07 12:33:23;;;;;;;1.25;1.15;;;;;;;;;;5069516;28;20039;-74
2023/07/07 12:35:56;;;;;;;0.47;0.47;;;;;;;;;;5078630;28;20039;-75
2023/07/07 12:38:24;;;;;;;0.40;0.40;;;;;;;;;;5069532;28;20542;-74
2023/07/07 12:40:49;;;;;;;2.63;1.60;;;;;;;;;;5080461;28;20064;-75
2023/07/07 12:43:28;;;;;;;2.20;1.38;;;;;;;;;;5083874;28;20509;-74
2023/07/07 12:45:55;;;;;;;0.70;0.70;;;;;;;;;;5086344;28;20024;-74
2023/07/07 12:48:28;;;;;;;0.50;0.50;;;;;;;;;;5077928;28;20108;-74
2023/07/07 12:50:59;;;;;;;0.70;0.70;;;;;;;;;;5068207;28;20086;-74
2023/07/07 12:53:24;;;;;;;0.60;0.60;;;;;;;;;;5076463;28;20054;-74
2023/07/07 12:55:57;;;;;;;0.60;0.60;;;;;;;;;;5080296;28;20040;-74
2023/07/07 12:58:23;;;;;;;2.13;1.27;;;;;;;;;;5068064;28;20050;-74
2023/07/07 13:01:02;;;;;;;0.50;0.50;;;;;;;;;;5067822;28;20032;-73
2023/07/07 13:03:31;;;;;;;0.50;0.50;;;;;;;;;;5067013;28;20072;-74
2023/07/07 13:05:57;;;;;;;0.60;0.60;;;;;;;;;;5050021;28;20032;-75
2023/07/07 13:08:37;;;;;;;0.35;0.35;;;;;;;;;;5068106;28;20118;-75
2023/07/07 13:11:15;;;;;;;0.43;0.43;;;;;;;;;;5049118;28;20472;-74
2023/07/07 13:13:44;;;;;;;2.28;1.52;;;;;;;;;;5047737;28;20041;-74
2023/07/07 13:16:11;;;;;;;4.95;1.30;;;;;;;;;;5065715;28;20052;-74
2023/07/07 13:18:36;;;;;;;1.08;1.08;;;;;;;;;;5064879;28;20076;-75
2023/07/07 13:21:02;;;;;;;0.40;0.40;;;;;;;;;;5065143;28;20431;-74
2023/07/07 13:23:34;;;;;;;0.57;0.57;;;;;;;;;;5065240;28;20115;-74
2023/07/07 13:26:00;;;;;;;0.60;0.60;;;;;;;;;;5064489;28;20035;-76
2023/07/07 13:28:26;;;;;;;2.65;1.48;;;;;;;;;;5065045;28;20024;-74
2023/07/07 13:30:55;;;;;;;0.40;0.40;;;;;;;;;;5065870;28;20044;-74
2023/07/07 13:33:22;;;;;;;0.57;0.57;;;;;;;;;;5048620;28;20119;-74
2023/07/07 13:35:54;;;;;;;0.40;0.40;;;;;;;;;;5048555;28;20044;-75
2023/07/07 13:38:20;;;;;;;0.40;0.40;;;;;;;;;;5066229;28;20048;-75
2023/07/07 13:40:46;;;;;;;1.10;1.10;;;;;;;;;;5066730;28;20075;-74
2023/07/07 13:43:23;;;;;;;0.85;0.65;;;;;;;;;;5068265;28;20098;-75
2023/07/07 13:45:53;;;;;;;0.68;0.68;;;;;;;;;;5085911;28;20028;-74
2023/07/07 13:48:21;;;;;;;1.75;0.80;;;;;;;;;;5085589;28;20436;-73
2023/07/07 13:50:47;;;;;;;0.47;0.47;;;;;;;;;;5086235;28;20213;-73
2023/07/07 13:53:12;;;;;;;1.00;0.90;;;;;;;;;;5086408;28;20133;-73
2023/07/07 13:55:41;;;;;;;1.88;0.95;;;;;;;;;;5086197;28;20093;-74
2023/07/07 13:58:15;;;;;;;0.38;0.38;;;;;;;;;;5086354;28;20036;-73
2023/07/07 14:00:42;;;;;;;0.57;0.57;;;;;;;;;;5086285;28;20514;-73
2023/07/07 14:03:14;;;;;;;3.08;1.80;;;;;;;;;;5086256;28;20035;-74
2023/07/07 14:05:40;;;;;;;0.55;0.55;;;;;;;;;;5085719;28;20024;-75
2023/07/07 14:08:06;;;;;;;0.50;0.50;;;;;;;;;;5066695;28;20059;-73
2023/07/07 14:10:36;;;;;;;0.45;0.45;;;;;;;;;;5084263;28;20074;-74
2023/07/07 14:13:05;;;;;;;0.50;0.50;;;;;;;;;;5084354;28;20036;-74
2023/07/07 14:15:30;;;;;;;;;;;;;;;;;;5086504;28;20060;-73
2023/07/07 14:17:56;;;;;;;0.50;0.50;;;;;;;;;;5086508;28;19978;-74
2023/07/07 14:20:26;;;;;;;2.78;1.00;;;;;;;;;;5085890;28;20036;-73
2023/07/07 14:22:52;;;;;;;1.73;1.25;;;;;;;;;;5071112;28;20036;-75
2023/07/07 14:25:20;;;;;;;8.50;2.72;;;;;;;;;;5091731;28;20043;-75
2023/07/07 14:27:46;;;;;;;0.60;0.60;;;;;;;;;;5091781;28;20388;-76
2023/07/07 14:30:16;;;;;;;5.70;2.20;;;;;;;;;;5091714;28;20039;-74
2023/07/07 14:32:43;;;;;;;0.52;0.52;;;;;;;;;;5091580;28;20032;-75
2023/07/07 14:35:17;;;;;;;0.40;0.40;;;;;;;;;;5091316;28;20043;-74
2023/07/07 14:37:50;;;;;;;1.67;1.13;;;;;;;;;;5091644;28;20035;-75
2023/07/07 14:40:27;;;;;;;0.40;0.40;;;;;;;;;;5091526;28;20040;-75
2023/07/07 14:42:53;;;;;;;0.95;0.90;;;;;;;;;;5091435;28;20089;-74
2023/07/07 14:45:48;;;;;;;1.50;1.10;;;;;;;;;;5091559;28;20111;-74
2023/07/07 14:48:20;;;;;;;0.60;0.60;;;;;;;;;;5068731;28;20205;-75
2023/07/07 14:50:47;;;;;;;0.45;0.45;;;;;;;;;;5067647;28;20036;-75